sensor_id;sensor_type;location;lat;lon;timestamp;temperature;humidity
56729;DHT22;42612;52.232;7.560;2023-12-04T00:01:00;5.90;58.40
56729;DHT22;42612;52.232;7.560;2023-12-04T00:03:27;5.90;58.40
56729;DHT22;42612;52.232;7.560;2023-12-04T00:05:53;5.90;58.60
56729;DHT22;42612;52.232;7.560;2023-12-04T00:08:18;5.90;58.50
56729;DHT22;42612;52.232;7.560;2023-12-04T00:10:44;5.90;58.60
56729;DHT22;42612;52.232;7.560;2023-12-04T00:13:10;5.90;58.60
56729;DHT22;42612;52.232;7.560;2023-12-04T00:15:36;5.90;58.70
56729;DHT22;42612;52.232;7.560;2023-12-04T00:18:02;5.90;58.70
56729;DHT22;42612;52.232;7.560;2023-12-04T00:20:28;5.90;58.70
56729;DHT22;42612;52.232;7.560;2023-12-04T00:22:54;5.90;58.70
56729;DHT22;42612;52.232;7.560;2023-12-04T00:25:20;5.90;58.70
56729;DHT22;42612;52.232;7.560;2023-12-04T00:27:45;5.90;58.80
56729;DHT22;42612;52.232;7.560;2023-12-04T00:30:11;5.90;58.80
56729;DHT22;42612;52.232;7.560;2023-12-04T00:32:37;5.90;58.80
56729;DHT22;42612;52.232;7.560;2023-12-04T00:35:03;5.90;59.40
56729;DHT22;42612;52.232;7.560;2023-12-04T00:37:28;6.00;58.80
56729;DHT22;42612;52.232;7.560;2023-12-04T00:39:54;6.00;58.80
56729;DHT22;42612;52.232;7.560;2023-12-04T00:42:20;6.00;58.70
56729;DHT22;42612;52.232;7.560;2023-12-04T00:44:45;6.00;58.80
56729;DHT22;42612;52.232;7.560;2023-12-04T00:47:11;6.00;58.80
56729;DHT22;42612;52.232;7.560;2023-12-04T00:49:37;6.00;58.80
56729;DHT22;42612;52.232;7.560;2023-12-04T00:52:03;6.00;58.80
56729;DHT22;42612;52.232;7.560;2023-12-04T00:54:29;6.00;58.80
56729;DHT22;42612;52.232;7.560;2023-12-04T00:56:55;5.90;58.70
56729;DHT22;42612;52.232;7.560;2023-12-04T00:59:20;5.90;58.80
56729;DHT22;42612;52.232;7.560;2023-12-04T01:01:46;5.90;58.80
56729;DHT22;42612;52.232;7.560;2023-12-04T01:04:12;5.90;58.60
56729;DHT22;42612;52.232;7.560;2023-12-04T01:06:38;5.80;58.70
56729;DHT22;42612;52.232;7.560;2023-12-04T01:09:03;5.80;58.80
56729;DHT22;42612;52.232;7.560;2023-12-04T01:11:29;5.80;58.90
56729;DHT22;42612;52.232;7.560;2023-12-04T01:13:55;5.80;59.00
56729;DHT22;42612;52.232;7.560;2023-12-04T01:16:20;5.80;59.00
56729;DHT22;42612;52.232;7.560;2023-12-04T01:18:46;5.80;59.00
56729;DHT22;42612;52.232;7.560;2023-12-04T01:21:12;5.80;58.90
56729;DHT22;42612;52.232;7.560;2023-12-04T01:23:37;5.80;58.90
56729;DHT22;42612;52.232;7.560;2023-12-04T01:26:04;5.80;59.50
56729;DHT22;42612;52.232;7.560;2023-12-04T01:28:30;5.80;58.80
56729;DHT22;42612;52.232;7.560;2023-12-04T01:30:56;5.80;58.80
56729;DHT22;42612;52.232;7.560;2023-12-04T01:33:22;5.80;58.90
56729;DHT22;42612;52.232;7.560;2023-12-04T01:35:47;5.80;58.90
56729;DHT22;42612;52.232;7.560;2023-12-04T01:38:13;5.80;58.90
56729;DHT22;42612;52.232;7.560;2023-12-04T01:40:39;5.80;58.90
56729;DHT22;42612;52.232;7.560;2023-12-04T01:43:04;5.80;59.00
56729;DHT22;42612;52.232;7.560;2023-12-04T01:45:30;5.70;58.90
56729;DHT22;42612;52.232;7.560;2023-12-04T01:47:57;5.80;59.00
56729;DHT22;42612;52.232;7.560;2023-12-04T01:50:24;5.80;59.20
56729;DHT22;42612;52.232;7.560;2023-12-04T01:52:50;5.80;59.20
56729;DHT22;42612;52.232;7.560;2023-12-04T01:55:17;5.80;59.10
56729;DHT22;42612;52.232;7.560;2023-12-04T01:57:44;5.80;59.00
56729;DHT22;42612;52.232;7.560;2023-12-04T02:00:10;5.80;59.00
56729;DHT22;42612;52.232;7.560;2023-12-04T02:02:41;5.80;59.10
56729;DHT22;42612;52.232;7.560;2023-12-04T02:05:09;5.80;59.20
56729;DHT22;42612;52.232;7.560;2023-12-04T02:07:36;5.90;59.20
56729;DHT22;42612;52.232;7.560;2023-12-04T02:10:03;5.90;59.10
56729;DHT22;42612;52.232;7.560;2023-12-04T02:12:29;5.90;59.10
56729;DHT22;42612;52.232;7.560;2023-12-04T02:14:56;5.90;59.20
56729;DHT22;42612;52.232;7.560;2023-12-04T02:17:23;5.90;59.20
56729;DHT22;42612;52.232;7.560;2023-12-04T02:19:49;5.90;59.10
56729;DHT22;42612;52.232;7.560;2023-12-04T02:22:15;5.90;59.10
56729;DHT22;42612;52.232;7.560;2023-12-04T02:24:42;5.90;59.20
56729;DHT22;42612;52.232;7.560;2023-12-04T02:27:22;5.90;59.20
56729;DHT22;42612;52.232;7.560;2023-12-04T02:29:58;5.90;59.30
56729;DHT22;42612;52.232;7.560;2023-12-04T02:32:28;5.90;59.30
56729;DHT22;42612;52.232;7.560;2023-12-04T02:34:56;5.90;59.20
56729;DHT22;42612;52.232;7.560;2023-12-04T02:37:24;5.90;59.20
56729;DHT22;42612;52.232;7.560;2023-12-04T02:39:50;5.90;59.10
56729;DHT22;42612;52.232;7.560;2023-12-04T02:42:20;5.90;59.10
56729;DHT22;42612;52.232;7.560;2023-12-04T02:44:47;5.90;59.10
56729;DHT22;42612;52.232;7.560;2023-12-04T02:47:12;5.90;59.10
56729;DHT22;42612;52.232;7.560;2023-12-04T02:49:38;6.00;59.10
56729;DHT22;42612;52.232;7.560;2023-12-04T02:52:04;6.00;59.00
56729;DHT22;42612;52.232;7.560;2023-12-04T02:54:30;6.00;58.90
56729;DHT22;42612;52.232;7.560;2023-12-04T02:56:55;6.00;58.90
56729;DHT22;42612;52.232;7.560;2023-12-04T02:59:21;6.00;58.80
56729;DHT22;42612;52.232;7.560;2023-12-04T03:01:47;6.00;58.80
56729;DHT22;42612;52.232;7.560;2023-12-04T03:04:13;6.00;58.80
56729;DHT22;42612;52.232;7.560;2023-12-04T03:06:39;6.00;58.80
56729;DHT22;42612;52.232;7.560;2023-12-04T03:09:04;6.00;58.80
56729;DHT22;42612;52.232;7.560;2023-12-04T03:11:30;6.00;58.70
56729;DHT22;42612;52.232;7.560;2023-12-04T03:13:56;6.00;58.70
56729;DHT22;42612;52.232;7.560;2023-12-04T03:16:23;6.10;58.70
56729;DHT22;42612;52.232;7.560;2023-12-04T03:18:48;6.10;58.70
56729;DHT22;42612;52.232;7.560;2023-12-04T03:21:14;6.00;58.60
56729;DHT22;42612;52.232;7.560;2023-12-04T03:23:40;6.10;58.70
56729;DHT22;42612;52.232;7.560;2023-12-04T03:26:06;6.10;58.60
56729;DHT22;42612;52.232;7.560;2023-12-04T03:28:32;6.10;58.60
56729;DHT22;42612;52.232;7.560;2023-12-04T03:30:57;6.10;58.60
56729;DHT22;42612;52.232;7.560;2023-12-04T03:33:23;6.10;58.50
56729;DHT22;42612;52.232;7.560;2023-12-04T03:35:49;6.10;58.50
56729;DHT22;42612;52.232;7.560;2023-12-04T03:38:14;6.10;58.60
56729;DHT22;42612;52.232;7.560;2023-12-04T03:40:40;6.10;58.50
56729;DHT22;42612;52.232;7.560;2023-12-04T03:43:06;6.10;58.50
56729;DHT22;42612;52.232;7.560;2023-12-04T03:45:32;6.10;58.40
56729;DHT22;42612;52.232;7.560;2023-12-04T03:47:57;6.10;58.40
56729;DHT22;42612;52.232;7.560;2023-12-04T03:50:23;6.10;58.40
56729;DHT22;42612;52.232;7.560;2023-12-04T03:52:49;6.10;58.40
56729;DHT22;42612;52.232;7.560;2023-12-04T03:55:14;6.10;58.30
56729;DHT22;42612;52.232;7.560;2023-12-04T03:57:41;6.10;58.20
56729;DHT22;42612;52.232;7.560;2023-12-04T04:00:09;6.10;58.10
56729;DHT22;42612;52.232;7.560;2023-12-04T04:02:35;6.10;58.10
56729;DHT22;42612;52.232;7.560;2023-12-04T04:05:01;6.10;58.20
56729;DHT22;42612;52.232;7.560;2023-12-04T04:07:27;6.10;58.10
56729;DHT22;42612;52.232;7.560;2023-12-04T04:09:52;6.10;58.00
56729;DHT22;42612;52.232;7.560;2023-12-04T04:12:18;6.10;58.00
56729;DHT22;42612;52.232;7.560;2023-12-04T04:14:44;6.10;58.10
56729;DHT22;42612;52.232;7.560;2023-12-04T04:17:09;6.10;58.10
56729;DHT22;42612;52.232;7.560;2023-12-04T04:19:35;6.10;58.00
56729;DHT22;42612;52.232;7.560;2023-12-04T04:22:01;6.10;58.10
56729;DHT22;42612;52.232;7.560;2023-12-04T04:24:28;6.10;58.20
56729;DHT22;42612;52.232;7.560;2023-12-04T04:26:54;6.10;58.80
56729;DHT22;42612;52.232;7.560;2023-12-04T04:29:20;6.10;58.10
56729;DHT22;42612;52.232;7.560;2023-12-04T04:31:45;6.10;58.10
56729;DHT22;42612;52.232;7.560;2023-12-04T04:34:11;6.10;58.10
56729;DHT22;42612;52.232;7.560;2023-12-04T04:36:37;6.10;58.00
56729;DHT22;42612;52.232;7.560;2023-12-04T04:39:03;6.10;57.90
56729;DHT22;42612;52.232;7.560;2023-12-04T04:41:28;6.10;57.80
56729;DHT22;42612;52.232;7.560;2023-12-04T04:43:54;6.10;57.90
56729;DHT22;42612;52.232;7.560;2023-12-04T04:46:20;6.10;58.00
56729;DHT22;42612;52.232;7.560;2023-12-04T04:48:46;6.10;57.90
56729;DHT22;42612;52.232;7.560;2023-12-04T04:51:11;6.10;57.80
56729;DHT22;42612;52.232;7.560;2023-12-04T04:53:38;6.10;57.70
56729;DHT22;42612;52.232;7.560;2023-12-04T04:56:04;6.20;57.80
56729;DHT22;42612;52.232;7.560;2023-12-04T04:58:30;6.10;57.70
56729;DHT22;42612;52.232;7.560;2023-12-04T05:00:56;6.20;57.70
56729;DHT22;42612;52.232;7.560;2023-12-04T05:03:21;6.20;57.60
56729;DHT22;42612;52.232;7.560;2023-12-04T05:05:47;6.20;57.70
56729;DHT22;42612;52.232;7.560;2023-12-04T05:08:13;6.20;57.70
56729;DHT22;42612;52.232;7.560;2023-12-04T05:10:39;6.10;57.70
56729;DHT22;42612;52.232;7.560;2023-12-04T05:13:05;6.10;57.60
56729;DHT22;42612;52.232;7.560;2023-12-04T05:15:30;6.10;57.50
56729;DHT22;42612;52.232;7.560;2023-12-04T05:17:56;6.20;57.50
56729;DHT22;42612;52.232;7.560;2023-12-04T05:20:22;6.20;57.60
56729;DHT22;42612;52.232;7.560;2023-12-04T05:22:48;6.20;57.60
56729;DHT22;42612;52.232;7.560;2023-12-04T05:25:14;6.20;57.60
56729;DHT22;42612;52.232;7.560;2023-12-04T05:27:40;6.20;57.60
56729;DHT22;42612;52.232;7.560;2023-12-04T05:30:06;6.20;57.50
56729;DHT22;42612;52.232;7.560;2023-12-04T05:32:32;6.20;57.40
56729;DHT22;42612;52.232;7.560;2023-12-04T05:34:58;6.20;57.40
56729;DHT22;42612;52.232;7.560;2023-12-04T05:37:23;6.20;57.50
56729;DHT22;42612;52.232;7.560;2023-12-04T05:39:49;6.20;57.40
56729;DHT22;42612;52.232;7.560;2023-12-04T05:42:15;6.20;57.40
56729;DHT22;42612;52.232;7.560;2023-12-04T05:44:41;6.20;57.40
56729;DHT22;42612;52.232;7.560;2023-12-04T05:47:07;6.20;58.10
56729;DHT22;42612;52.232;7.560;2023-12-04T05:49:33;6.20;57.40
56729;DHT22;42612;52.232;7.560;2023-12-04T05:51:59;6.20;57.30
56729;DHT22;42612;52.232;7.560;2023-12-04T05:54:25;6.20;57.20
56729;DHT22;42612;52.232;7.560;2023-12-04T05:56:51;6.20;57.20
56729;DHT22;42612;52.232;7.560;2023-12-04T05:59:16;6.20;57.20
56729;DHT22;42612;52.232;7.560;2023-12-04T06:01:42;6.20;57.10
56729;DHT22;42612;52.232;7.560;2023-12-04T06:04:08;6.20;57.10
56729;DHT22;42612;52.232;7.560;2023-12-04T06:06:34;6.30;57.10
56729;DHT22;42612;52.232;7.560;2023-12-04T06:09:00;6.30;57.20
56729;DHT22;42612;52.232;7.560;2023-12-04T06:11:25;6.20;57.20
56729;DHT22;42612;52.232;7.560;2023-12-04T06:13:51;6.30;57.20
56729;DHT22;42612;52.232;7.560;2023-12-04T06:16:17;6.30;57.20
56729;DHT22;42612;52.232;7.560;2023-12-04T06:18:43;6.30;57.00
56729;DHT22;42612;52.232;7.560;2023-12-04T06:21:08;6.30;57.00
56729;DHT22;42612;52.232;7.560;2023-12-04T06:23:34;6.40;57.10
56729;DHT22;42612;52.232;7.560;2023-12-04T06:26:00;6.40;57.00
56729;DHT22;42612;52.232;7.560;2023-12-04T06:28:26;6.30;56.80
56729;DHT22;42612;52.232;7.560;2023-12-04T06:30:53;6.40;56.80
56729;DHT22;42612;52.232;7.560;2023-12-04T06:33:19;6.40;56.80
56729;DHT22;42612;52.232;7.560;2023-12-04T06:35:45;6.40;56.70
56729;DHT22;42612;52.232;7.560;2023-12-04T06:38:16;6.40;56.60
56729;DHT22;42612;52.232;7.560;2023-12-04T06:40:44;6.40;56.60
56729;DHT22;42612;52.232;7.560;2023-12-04T06:43:10;6.40;56.50
56729;DHT22;42612;52.232;7.560;2023-12-04T06:45:38;6.40;56.60
56729;DHT22;42612;52.232;7.560;2023-12-04T06:48:04;6.40;56.60
56729;DHT22;42612;52.232;7.560;2023-12-04T06:50:30;6.40;56.50
56729;DHT22;42612;52.232;7.560;2023-12-04T06:52:56;6.40;56.40
56729;DHT22;42612;52.232;7.560;2023-12-04T06:55:22;6.40;56.40
56729;DHT22;42612;52.232;7.560;2023-12-04T06:57:48;6.40;56.40
56729;DHT22;42612;52.232;7.560;2023-12-04T07:00:14;6.40;56.30
56729;DHT22;42612;52.232;7.560;2023-12-04T07:02:41;6.40;56.30
56729;DHT22;42612;52.232;7.560;2023-12-04T07:05:07;6.40;56.30
56729;DHT22;42612;52.232;7.560;2023-12-04T07:07:33;6.40;56.30
56729;DHT22;42612;52.232;7.560;2023-12-04T07:09:59;6.40;56.20
56729;DHT22;42612;52.232;7.560;2023-12-04T07:12:25;6.40;56.10
56729;DHT22;42612;52.232;7.560;2023-12-04T07:14:50;6.40;56.20
56729;DHT22;42612;52.232;7.560;2023-12-04T07:17:16;6.40;56.10
56729;DHT22;42612;52.232;7.560;2023-12-04T07:19:42;6.40;56.20
56729;DHT22;42612;52.232;7.560;2023-12-04T07:22:08;6.40;56.00
56729;DHT22;42612;52.232;7.560;2023-12-04T07:24:33;6.40;55.90
56729;DHT22;42612;52.232;7.560;2023-12-04T07:26:59;6.40;56.00
56729;DHT22;42612;52.232;7.560;2023-12-04T07:29:25;6.30;55.90
56729;DHT22;42612;52.232;7.560;2023-12-04T07:31:51;6.40;55.90
56729;DHT22;42612;52.232;7.560;2023-12-04T07:34:17;6.40;55.80
56729;DHT22;42612;52.232;7.560;2023-12-04T07:36:42;6.40;55.80
56729;DHT22;42612;52.232;7.560;2023-12-04T07:39:10;6.30;55.70
56729;DHT22;42612;52.232;7.560;2023-12-04T07:41:36;6.40;55.70
56729;DHT22;42612;52.232;7.560;2023-12-04T07:44:02;6.40;55.70
56729;DHT22;42612;52.232;7.560;2023-12-04T07:46:29;6.30;55.60
56729;DHT22;42612;52.232;7.560;2023-12-04T07:48:55;6.40;55.60
56729;DHT22;42612;52.232;7.560;2023-12-04T07:51:21;6.40;55.60
56729;DHT22;42612;52.232;7.560;2023-12-04T07:53:47;6.40;55.60
56729;DHT22;42612;52.232;7.560;2023-12-04T07:56:13;6.40;55.50
56729;DHT22;42612;52.232;7.560;2023-12-04T07:58:39;6.40;55.40
56729;DHT22;42612;52.232;7.560;2023-12-04T08:01:05;6.40;56.10
56729;DHT22;42612;52.232;7.560;2023-12-04T08:03:31;6.40;55.20
56729;DHT22;42612;52.232;7.560;2023-12-04T08:05:57;6.40;55.20
56729;DHT22;42612;52.232;7.560;2023-12-04T08:08:24;6.40;55.30
56729;DHT22;42612;52.232;7.560;2023-12-04T08:10:50;6.40;55.40
56729;DHT22;42612;52.232;7.560;2023-12-04T08:13:16;6.40;55.20
56729;DHT22;42612;52.232;7.560;2023-12-04T08:15:43;6.40;55.10
56729;DHT22;42612;52.232;7.560;2023-12-04T08:18:09;6.40;55.20
56729;DHT22;42612;52.232;7.560;2023-12-04T08:20:35;6.40;55.10
56729;DHT22;42612;52.232;7.560;2023-12-04T08:23:01;6.40;55.10
56729;DHT22;42612;52.232;7.560;2023-12-04T08:25:26;6.40;55.10
56729;DHT22;42612;52.232;7.560;2023-12-04T08:27:52;6.40;55.10
56729;DHT22;42612;52.232;7.560;2023-12-04T08:30:18;6.40;55.10
56729;DHT22;42612;52.232;7.560;2023-12-04T08:32:44;6.40;55.10
56729;DHT22;42612;52.232;7.560;2023-12-04T08:35:10;6.40;55.10
56729;DHT22;42612;52.232;7.560;2023-12-04T08:37:35;6.40;55.10
56729;DHT22;42612;52.232;7.560;2023-12-04T08:40:01;6.40;55.10
56729;DHT22;42612;52.232;7.560;2023-12-04T08:42:28;6.40;55.00
56729;DHT22;42612;52.232;7.560;2023-12-04T08:44:55;6.30;55.00
56729;DHT22;42612;52.232;7.560;2023-12-04T08:47:20;6.40;55.10
56729;DHT22;42612;52.232;7.560;2023-12-04T08:49:46;6.40;55.10
56729;DHT22;42612;52.232;7.560;2023-12-04T08:52:12;6.30;55.00
56729;DHT22;42612;52.232;7.560;2023-12-04T08:54:41;6.40;55.10
56729;DHT22;42612;52.232;7.560;2023-12-04T08:57:07;6.40;54.90
56729;DHT22;42612;52.232;7.560;2023-12-04T08:59:34;6.40;55.00
56729;DHT22;42612;52.232;7.560;2023-12-04T09:02:00;6.40;55.10
56729;DHT22;42612;52.232;7.560;2023-12-04T09:04:32;6.40;55.00
56729;DHT22;42612;52.232;7.560;2023-12-04T09:06:58;6.40;54.90
56729;DHT22;42612;52.232;7.560;2023-12-04T09:09:24;6.40;54.80
56729;DHT22;42612;52.232;7.560;2023-12-04T09:11:50;6.40;54.80
56729;DHT22;42612;52.232;7.560;2023-12-04T09:14:16;6.40;54.70
56729;DHT22;42612;52.232;7.560;2023-12-04T09:16:42;6.40;54.90
56729;DHT22;42612;52.232;7.560;2023-12-04T09:19:08;6.40;54.80
56729;DHT22;42612;52.232;7.560;2023-12-04T09:21:34;6.40;54.70
56729;DHT22;42612;52.232;7.560;2023-12-04T09:24:01;6.50;54.80
56729;DHT22;42612;52.232;7.560;2023-12-04T09:26:26;6.50;54.70
56729;DHT22;42612;52.232;7.560;2023-12-04T09:28:52;6.50;54.60
56729;DHT22;42612;52.232;7.560;2023-12-04T09:31:18;6.50;54.60
56729;DHT22;42612;52.232;7.560;2023-12-04T09:33:45;6.50;54.60
56729;DHT22;42612;52.232;7.560;2023-12-04T09:36:10;6.50;54.50
56729;DHT22;42612;52.232;7.560;2023-12-04T09:38:36;6.50;54.90
56729;DHT22;42612;52.232;7.560;2023-12-04T09:41:05;6.60;55.30
56729;DHT22;42612;52.232;7.560;2023-12-04T09:43:32;6.50;54.50
56729;DHT22;42612;52.232;7.560;2023-12-04T09:45:59;6.60;54.50
56729;DHT22;42612;52.232;7.560;2023-12-04T09:48:26;6.60;54.40
56729;DHT22;42612;52.232;7.560;2023-12-04T09:50:52;6.60;54.40
56729;DHT22;42612;52.232;7.560;2023-12-04T09:53:20;6.60;54.40
56729;DHT22;42612;52.232;7.560;2023-12-04T09:55:49;6.60;54.50
56729;DHT22;42612;52.232;7.560;2023-12-04T09:58:15;6.60;54.20
56729;DHT22;42612;52.232;7.560;2023-12-04T10:00:45;6.50;54.30
56729;DHT22;42612;52.232;7.560;2023-12-04T10:03:11;6.60;54.30
56729;DHT22;42612;52.232;7.560;2023-12-04T10:05:43;6.60;54.30
56729;DHT22;42612;52.232;7.560;2023-12-04T10:08:11;6.60;54.10
56729;DHT22;42612;52.232;7.560;2023-12-04T10:10:36;6.60;54.90
56729;DHT22;42612;52.232;7.560;2023-12-04T10:13:02;6.60;54.30
56729;DHT22;42612;52.232;7.560;2023-12-04T10:15:28;6.60;54.30
56729;DHT22;42612;52.232;7.560;2023-12-04T10:17:54;6.70;54.90
56729;DHT22;42612;52.232;7.560;2023-12-04T10:20:20;6.60;54.00
56729;DHT22;42612;52.232;7.560;2023-12-04T10:22:59;6.70;54.00
56729;DHT22;42612;52.232;7.560;2023-12-04T10:25:28;6.70;53.50
56729;DHT22;42612;52.232;7.560;2023-12-04T10:28:09;6.70;53.60
56729;DHT22;42612;52.232;7.560;2023-12-04T10:30:37;6.80;53.10
56729;DHT22;42612;52.232;7.560;2023-12-04T10:33:04;6.80;53.60
56729;DHT22;42612;52.232;7.560;2023-12-04T10:35:31;6.80;53.50
56729;DHT22;42612;52.232;7.560;2023-12-04T10:37:58;6.80;53.40
56729;DHT22;42612;52.232;7.560;2023-12-04T10:40:33;6.80;53.10
56729;DHT22;42612;52.232;7.560;2023-12-04T10:43:23;6.80;53.30
56729;DHT22;42612;52.232;7.560;2023-12-04T10:45:52;6.90;52.90
56729;DHT22;42612;52.232;7.560;2023-12-04T10:48:19;6.90;53.50
56729;DHT22;42612;52.232;7.560;2023-12-04T10:50:48;6.90;53.30
56729;DHT22;42612;52.232;7.560;2023-12-04T10:53:15;6.90;53.60
56729;DHT22;42612;52.232;7.560;2023-12-04T10:55:42;6.90;53.30
56729;DHT22;42612;52.232;7.560;2023-12-04T10:58:14;6.90;52.90
56729;DHT22;42612;52.232;7.560;2023-12-04T11:00:48;7.00;53.10
56729;DHT22;42612;52.232;7.560;2023-12-04T11:03:42;7.00;52.90
56729;DHT22;42612;52.232;7.560;2023-12-04T11:06:11;7.00;52.80
56729;DHT22;42612;52.232;7.560;2023-12-04T11:08:41;7.00;53.20
56729;DHT22;42612;52.232;7.560;2023-12-04T11:11:18;7.00;53.10
56729;DHT22;42612;52.232;7.560;2023-12-04T11:13:49;7.00;52.40
56729;DHT22;42612;52.232;7.560;2023-12-04T11:16:22;7.00;52.80
56729;DHT22;42612;52.232;7.560;2023-12-04T11:18:56;7.10;52.70
56729;DHT22;42612;52.232;7.560;2023-12-04T11:21:34;7.00;52.70
56729;DHT22;42612;52.232;7.560;2023-12-04T11:24:00;7.10;53.60
56729;DHT22;42612;52.232;7.560;2023-12-04T11:26:27;7.00;52.80
56729;DHT22;42612;52.232;7.560;2023-12-04T11:28:53;7.00;52.80
56729;DHT22;42612;52.232;7.560;2023-12-04T11:31:20;7.10;52.80
56729;DHT22;42612;52.232;7.560;2023-12-04T11:33:46;7.10;52.80
56729;DHT22;42612;52.232;7.560;2023-12-04T11:36:12;7.00;52.70
56729;DHT22;42612;52.232;7.560;2023-12-04T11:38:46;7.10;52.70
56729;DHT22;42612;52.232;7.560;2023-12-04T11:41:19;7.10;52.30
56729;DHT22;42612;52.232;7.560;2023-12-04T11:43:46;7.10;52.10
56729;DHT22;42612;52.232;7.560;2023-12-04T11:46:18;7.10;52.40
56729;DHT22;42612;52.232;7.560;2023-12-04T11:48:55;7.10;52.30
56729;DHT22;42612;52.232;7.560;2023-12-04T11:54:14;7.10;51.30
56729;DHT22;42612;52.232;7.560;2023-12-04T11:57:38;7.20;52.20
56729;DHT22;42612;52.232;7.560;2023-12-04T11:59:48;7.20;51.60
56729;DHT22;42612;52.232;7.560;2023-12-04T12:02:15;7.20;52.20
56729;DHT22;42612;52.232;7.560;2023-12-04T12:04:41;7.20;52.30
56729;DHT22;42612;52.232;7.560;2023-12-04T12:07:07;7.20;52.20
56729;DHT22;42612;52.232;7.560;2023-12-04T12:09:33;7.30;52.20
56729;DHT22;42612;52.232;7.560;2023-12-04T12:12:01;7.30;52.90
56729;DHT22;42612;52.232;7.560;2023-12-04T12:14:36;7.30;52.00
56729;DHT22;42612;52.232;7.560;2023-12-04T12:17:02;7.30;52.20
56729;DHT22;42612;52.232;7.560;2023-12-04T12:19:28;7.30;52.20
56729;DHT22;42612;52.232;7.560;2023-12-04T12:21:54;7.30;52.20
56729;DHT22;42612;52.232;7.560;2023-12-04T12:24:19;7.30;52.20
56729;DHT22;42612;52.232;7.560;2023-12-04T12:26:45;7.30;52.20
56729;DHT22;42612;52.232;7.560;2023-12-04T12:29:11;7.40;52.30
56729;DHT22;42612;52.232;7.560;2023-12-04T12:31:37;7.40;52.30
56729;DHT22;42612;52.232;7.560;2023-12-04T12:34:03;7.40;52.30
56729;DHT22;42612;52.232;7.560;2023-12-04T12:36:29;7.40;52.30
56729;DHT22;42612;52.232;7.560;2023-12-04T12:39:01;7.40;52.20
56729;DHT22;42612;52.232;7.560;2023-12-04T12:41:29;7.40;52.10
56729;DHT22;42612;52.232;7.560;2023-12-04T12:43:55;7.40;52.00
56729;DHT22;42612;52.232;7.560;2023-12-04T12:46:22;7.40;52.00
56729;DHT22;42612;52.232;7.560;2023-12-04T12:48:48;7.30;51.80
56729;DHT22;42612;52.232;7.560;2023-12-04T12:51:13;7.40;52.00
56729;DHT22;42612;52.232;7.560;2023-12-04T12:53:39;7.40;51.90
56729;DHT22;42612;52.232;7.560;2023-12-04T12:56:06;7.40;52.00
56729;DHT22;42612;52.232;7.560;2023-12-04T12:58:33;7.40;51.80
56729;DHT22;42612;52.232;7.560;2023-12-04T13:01:00;7.40;52.40
56729;DHT22;42612;52.232;7.560;2023-12-04T13:03:27;7.40;51.70
56729;DHT22;42612;52.232;7.560;2023-12-04T13:05:53;7.50;52.30
56729;DHT22;42612;52.232;7.560;2023-12-04T13:08:19;7.50;51.70
56729;DHT22;42612;52.232;7.560;2023-12-04T13:10:45;7.50;51.70
56729;DHT22;42612;52.232;7.560;2023-12-04T13:13:12;7.40;51.70
56729;DHT22;42612;52.232;7.560;2023-12-04T13:15:43;7.40;51.70
56729;DHT22;42612;52.232;7.560;2023-12-04T13:18:09;7.50;51.60
56729;DHT22;42612;52.232;7.560;2023-12-04T13:20:35;7.40;51.60
56729;DHT22;42612;52.232;7.560;2023-12-04T13:23:01;7.50;51.70
56729;DHT22;42612;52.232;7.560;2023-12-04T13:25:27;7.50;51.50
56729;DHT22;42612;52.232;7.560;2023-12-04T13:27:53;7.50;51.60
56729;DHT22;42612;52.232;7.560;2023-12-04T13:30:19;7.50;51.50
56729;DHT22;42612;52.232;7.560;2023-12-04T13:32:45;7.50;51.50
56729;DHT22;42612;52.232;7.560;2023-12-04T13:35:11;7.50;51.50
56729;DHT22;42612;52.232;7.560;2023-12-04T13:37:37;7.50;51.30
56729;DHT22;42612;52.232;7.560;2023-12-04T13:40:05;7.50;51.30
56729;DHT22;42612;52.232;7.560;2023-12-04T13:42:38;7.50;51.30
56729;DHT22;42612;52.232;7.560;2023-12-04T13:45:23;7.40;51.20
56729;DHT22;42612;52.232;7.560;2023-12-04T13:47:49;7.50;51.20
56729;DHT22;42612;52.232;7.560;2023-12-04T13:50:15;7.50;51.20
56729;DHT22;42612;52.232;7.560;2023-12-04T13:52:42;7.40;51.20
56729;DHT22;42612;52.232;7.560;2023-12-04T13:55:09;7.50;51.20
56729;DHT22;42612;52.232;7.560;2023-12-04T13:58:01;7.40;51.10
56729;DHT22;42612;52.232;7.560;2023-12-04T14:00:27;7.40;51.20
56729;DHT22;42612;52.232;7.560;2023-12-04T14:02:53;7.40;51.20
56729;DHT22;42612;52.232;7.560;2023-12-04T14:05:25;7.30;51.20
56729;DHT22;42612;52.232;7.560;2023-12-04T14:07:51;7.30;51.30
56729;DHT22;42612;52.232;7.560;2023-12-04T14:10:17;7.30;51.30
56729;DHT22;42612;52.232;7.560;2023-12-04T14:12:43;7.30;51.20
56729;DHT22;42612;52.232;7.560;2023-12-04T14:15:10;7.30;51.20
56729;DHT22;42612;52.232;7.560;2023-12-04T14:17:35;7.30;51.20
56729;DHT22;42612;52.232;7.560;2023-12-04T14:20:02;7.30;51.20
56729;DHT22;42612;52.232;7.560;2023-12-04T14:22:36;7.20;51.40
56729;DHT22;42612;52.232;7.560;2023-12-04T14:25:02;7.30;51.40
56729;DHT22;42612;52.232;7.560;2023-12-04T14:27:28;7.30;51.40
56729;DHT22;42612;52.232;7.560;2023-12-04T14:29:54;7.30;51.30
56729;DHT22;42612;52.232;7.560;2023-12-04T14:32:19;7.20;51.20
56729;DHT22;42612;52.232;7.560;2023-12-04T14:34:45;7.20;51.20
56729;DHT22;42612;52.232;7.560;2023-12-04T14:37:11;7.20;51.10
56729;DHT22;42612;52.232;7.560;2023-12-04T14:39:37;7.20;51.20
56729;DHT22;42612;52.232;7.560;2023-12-04T14:42:02;7.20;51.20
56729;DHT22;42612;52.232;7.560;2023-12-04T14:44:28;7.20;51.30
56729;DHT22;42612;52.232;7.560;2023-12-04T14:46:54;7.10;51.20
56729;DHT22;42612;52.232;7.560;2023-12-04T14:49:20;7.20;51.30
56729;DHT22;42612;52.232;7.560;2023-12-04T14:51:45;7.20;51.10
56729;DHT22;42612;52.232;7.560;2023-12-04T14:54:13;7.20;51.20
56729;DHT22;42612;52.232;7.560;2023-12-04T14:56:47;7.10;51.30
56729;DHT22;42612;52.232;7.560;2023-12-04T14:59:16;7.10;51.30
56729;DHT22;42612;52.232;7.560;2023-12-04T15:02:11;7.10;51.30
56729;DHT22;42612;52.232;7.560;2023-12-04T15:04:55;7.10;51.40
56729;DHT22;42612;52.232;7.560;2023-12-04T15:07:29;7.10;51.40
56729;DHT22;42612;52.232;7.560;2023-12-04T15:10:21;7.10;51.50
56729;DHT22;42612;52.232;7.560;2023-12-04T15:12:50;7.10;51.50
56729;DHT22;42612;52.232;7.560;2023-12-04T15:15:31;7.10;52.20
56729;DHT22;42612;52.232;7.560;2023-12-04T15:18:16;7.10;51.50
56729;DHT22;42612;52.232;7.560;2023-12-04T15:21:03;7.10;51.50
56729;DHT22;42612;52.232;7.560;2023-12-04T15:23:29;7.10;51.60
56729;DHT22;42612;52.232;7.560;2023-12-04T15:25:56;7.00;51.60
56729;DHT22;42612;52.232;7.560;2023-12-04T15:28:21;7.00;51.60
56729;DHT22;42612;52.232;7.560;2023-12-04T15:30:48;7.00;51.60
56729;DHT22;42612;52.232;7.560;2023-12-04T15:33:14;7.00;51.70
56729;DHT22;42612;52.232;7.560;2023-12-04T15:35:40;7.00;52.20
56729;DHT22;42612;52.232;7.560;2023-12-04T15:38:07;7.00;51.70
56729;DHT22;42612;52.232;7.560;2023-12-04T15:40:33;7.00;51.80
56729;DHT22;42612;52.232;7.560;2023-12-04T15:43:00;7.00;52.50
56729;DHT22;42612;52.232;7.560;2023-12-04T15:45:27;7.00;51.90
56729;DHT22;42612;52.232;7.560;2023-12-04T15:47:52;7.00;52.00